Time;durP1;ratioP1;P1;durP2;ratioP2;P2;SDS_P1;SDS_P2;PMS_P1;PMS_P2;Temp;Humidity;BMP_temperature;BMP_pressure;BME280_temperature;BME280_humidity;BME280_pressure;Samples;Min_cycle;Max_cycle;Signal;HPM_P1;HPM_P2
2022/07/06 00:00:18;;;;;;;3.60;3.07;;;27.60;82.10;;;;;;5123484;28;20474;-65
2022/07/06 00:02:49;;;;;;;3.30;3.00;;;27.60;81.10;;;;;;5123625;28;20474;-64
2022/07/06 00:05:20;;;;;;;2.70;2.50;;;27.90;78.70;;;;;;5120948;28;20459;-64
2022/07/06 00:07:52;;;;;;;3.87;3.47;;;28.10;81.40;;;;;;5122843;28;20472;-65
2022/07/06 00:10:23;;;;;;;2.80;2.60;;;28.10;80.80;;;;;;5121869;28;20450;-64
2022/07/06 00:12:54;;;;;;;3.57;3.20;;;27.90;79.60;;;;;;5122227;28;20460;-64
2022/07/06 00:15:25;;;;;;;4.10;3.70;;;27.80;78.60;;;;;;5123961;28;20444;-65
2022/07/06 00:17:55;;;;;;;3.27;2.97;;;27.80;79.40;;;;;;5124078;28;20457;-64
2022/07/06 00:20:26;;;;;;;3.10;2.80;;;27.60;81.70;;;;;;5122181;28;20463;-65
2022/07/06 00:22:59;;;;;;;3.70;3.40;;;27.20;82.90;;;;;;5123607;28;20570;-64
2022/07/06 00:25:29;;;;;;;3.90;3.50;;;27.10;82.80;;;;;;5123539;28;20452;-64
2022/07/06 00:28:00;;;;;;;3.80;3.40;;;26.90;83.80;;;;;;5121783;28;20516;-64
2022/07/06 00:30:31;;;;;;;3.13;2.80;;;26.80;83.00;;;;;;5118107;28;20443;-65
2022/07/06 00:33:02;;;;;;;3.80;2.83;;;26.90;81.70;;;;;;5123198;28;20918;-65
2022/07/06 00:35:33;;;;;;;3.20;2.90;;;26.50;83.00;;;;;;5122494;28;20466;-65
2022/07/06 00:38:05;;;;;;;4.20;3.80;;;26.40;85.20;;;;;;5123573;28;20463;-65
2022/07/06 00:40:36;;;;;;;3.10;2.90;;;26.30;85.50;;;;;;5091040;28;20461;-65
2022/07/06 00:43:07;;;;;;;3.40;3.10;;;26.40;84.70;;;;;;5123195;28;20473;-65
2022/07/06 00:45:38;;;;;;;3.67;3.30;;;26.10;86.70;;;;;;5123323;28;20451;-65
2022/07/06 00:48:09;;;;;;;3.60;3.30;;;25.90;86.40;;;;;;5114635;28;20461;-65
2022/07/06 00:50:40;;;;;;;3.57;3.27;;;26.00;87.10;;;;;;5122037;28;20479;-65
2022/07/06 00:53:16;;;;;;;5.73;3.43;;;26.20;88.50;;;;;;5122845;28;20485;-65
2022/07/06 00:55:47;;;;;;;4.07;3.70;;;25.90;87.40;;;;;;5117074;28;20460;-65
2022/07/06 00:58:17;;;;;;;3.73;3.43;;;26.00;86.80;;;;;;5123071;28;20447;-65
2022/07/06 01:00:50;;;;;;;4.40;3.10;;;25.90;88.20;;;;;;5098278;28;20453;-65
2022/07/06 01:03:21;;;;;;;4.07;3.53;;;25.80;89.20;;;;;;5122921;28;20536;-65
2022/07/06 01:05:52;;;;;;;3.23;2.80;;;25.60;89.50;;;;;;5121413;28;20442;-65
2022/07/06 01:08:26;;;;;;;3.77;3.47;;;25.70;88.80;;;;;;5090675;28;20457;-65
2022/07/06 01:10:57;;;;;;;3.43;3.03;;;25.60;89.70;;;;;;5122284;28;20460;-65
2022/07/06 01:13:29;;;;;;;3.20;2.90;;;25.50;90.40;;;;;;5122863;28;20460;-65
2022/07/06 01:16:00;;;;;;;3.40;3.10;;;25.40;90.20;;;;;;5122522;28;20438;-65
2022/07/06 01:18:30;;;;;;;3.83;3.53;;;25.30;90.20;;;;;;5123167;28;20891;-65
2022/07/06 01:21:15;;;;;;;3.93;3.63;;;25.20;91.10;;;;;;5121684;28;20474;-65
2022/07/06 01:23:47;;;;;;;3.63;3.30;;;25.00;92.50;;;;;;5122838;28;20614;-65
2022/07/06 01:26:21;;;;;;;3.53;3.27;;;24.90;93.20;;;;;;5117625;28;20457;-65
2022/07/06 01:28:53;;;;;;;3.20;3.00;;;24.80;93.80;;;;;;5119112;28;20578;-65
2022/07/06 01:31:26;;;;;;;4.43;3.20;;;24.60;94.20;;;;;;5122013;28;20458;-65
2022/07/06 01:33:58;;;;;;;3.97;3.50;;;24.50;95.10;;;;;;5122969;28;20734;-65
2022/07/06 01:36:31;;;;;;;3.70;3.23;;;24.30;95.60;;;;;;5121420;28;20448;-65
2022/07/06 01:39:01;;;;;;;4.63;3.53;;;24.40;95.70;;;;;;5122415;28;20467;-65
2022/07/06 01:41:32;;;;;;;3.17;2.87;;;24.20;96.10;;;;;;5113868;28;20446;-65
2022/07/06 01:44:03;;;;;;;4.00;3.07;;;24.10;96.40;;;;;;5126367;28;20486;-65
2022/07/06 01:46:34;;;;;;;2.90;2.60;;;23.90;96.70;;;;;;5126742;28;20461;-65
2022/07/06 01:49:05;;;;;;;3.53;3.20;;;23.80;97.00;;;;;;5126790;28;20513;-65
2022/07/06 01:51:38;;;;;;;5.40;4.27;;;23.80;98.20;;;;;;5125018;28;20449;-66
2022/07/06 01:54:09;;;;;;;3.30;3.00;;;23.70;98.50;;;;;;5126219;28;20517;-64
2022/07/06 01:56:39;;;;;;;5.00;3.50;;;23.50;98.20;;;;;;5125999;28;20445;-65
2022/07/06 01:59:10;;;;;;;3.70;3.40;;;23.50;99.30;;;;;;5126341;28;20445;-64
2022/07/06 02:01:41;;;;;;;3.53;2.70;;;23.50;99.80;;;;;;5125851;28;20576;-65
2022/07/06 02:04:12;;;;;;;3.40;3.10;;;23.50;99.90;;;;;;5125818;28;20596;-65
2022/07/06 02:06:45;;;;;;;2.97;2.70;;;23.50;99.70;;;;;;5124626;28;20457;-65
2022/07/06 02:09:16;;;;;;;3.70;2.90;;;23.50;99.20;;;;;;5125728;28;20909;-65
2022/07/06 02:11:47;;;;;;;3.60;3.23;;;23.30;99.60;;;;;;5125595;28;20454;-64
2022/07/06 02:14:18;;;;;;;2.83;2.63;;;23.20;99.90;;;;;;5125943;28;20452;-64
2022/07/06 02:16:50;;;;;;;3.67;3.30;;;23.20;99.90;;;;;;5111019;28;20910;-64
2022/07/06 02:19:21;;;;;;;2.93;2.63;;;23.00;99.90;;;;;;5125284;28;20448;-64
2022/07/06 02:21:53;;;;;;;3.63;2.63;;;23.00;99.90;;;;;;5124713;28;20930;-64
2022/07/06 02:24:24;;;;;;;4.57;3.10;;;23.10;99.90;;;;;;5125731;28;20477;-64
2022/07/06 02:26:55;;;;;;;3.90;3.60;;;23.10;99.90;;;;;;5125785;28;20468;-64
2022/07/06 02:29:26;;;;;;;3.20;2.90;;;23.10;99.90;;;;;;5125694;28;20442;-63
2022/07/06 02:31:57;;;;;;;3.17;2.87;;;23.10;99.90;;;;;;5125767;28;20809;-64
2022/07/06 02:34:30;;;;;;;3.03;2.73;;;23.00;99.90;;;;;;5124728;28;20456;-64
2022/07/06 02:37:03;;;;;;;3.30;3.00;;;23.00;99.90;;;;;;5124438;28;20959;-64
2022/07/06 02:39:36;;;;;;;4.30;3.10;;;22.90;99.90;;;;;;5125595;28;20445;-64
2022/07/06 02:42:07;;;;;;;3.63;3.17;;;22.90;99.90;;;;;;5125125;28;20929;-65
2022/07/06 02:44:39;;;;;;;3.30;2.90;;;22.80;99.90;;;;;;5125197;28;20472;-64
2022/07/06 02:47:10;;;;;;;2.90;2.67;;;22.80;99.90;;;;;;5125441;28;20446;-65
2022/07/06 02:49:43;;;;;;;3.37;3.00;;;22.80;99.90;;;;;;5093291;28;20526;-64
2022/07/06 02:52:15;;;;;;;3.20;2.57;;;22.80;99.90;;;;;;5124059;28;20469;-64
2022/07/06 02:54:46;;;;;;;3.83;2.47;;;22.80;99.90;;;;;;5124177;28;20442;-64
2022/07/06 02:57:17;;;;;;;3.97;3.03;;;22.60;99.90;;;;;;5124972;28;20449;-64
2022/07/06 02:59:49;;;;;;;3.87;3.20;;;22.60;99.90;;;;;;5108659;28;20452;-65
2022/07/06 03:02:20;;;;;;;2.80;2.57;;;22.50;99.90;;;;;;5124985;28;20453;-64
2022/07/06 03:04:51;;;;;;;4.10;3.70;;;22.40;99.90;;;;;;5124436;28;20477;-65
2022/07/06 03:07:23;;;;;;;5.10;3.33;;;22.40;99.90;;;;;;5123922;27;20441;-66
2022/07/06 03:09:54;;;;;;;4.40;2.90;;;22.40;99.90;;;;;;5124458;28;20450;-66
2022/07/06 03:12:26;;;;;;;3.90;3.60;;;22.30;99.90;;;;;;5124498;28;20454;-66
2022/07/06 03:14:56;;;;;;;3.70;3.40;;;22.10;99.90;;;;;;5102849;28;21038;-65
2022/07/06 03:17:27;;;;;;;3.20;2.90;;;21.90;99.90;;;;;;5125207;27;20445;-66
2022/07/06 03:19:58;;;;;;;3.27;2.83;;;21.70;99.90;;;;;;5124658;28;20471;-66
2022/07/06 03:22:31;;;;;;;3.10;2.70;;;21.60;99.90;;;;;;5123986;28;20471;-66
2022/07/06 03:25:02;;;;;;;2.97;2.67;;;21.40;99.90;;;;;;5092412;28;20485;-66
2022/07/06 03:27:33;;;;;;;3.40;3.10;;;21.30;99.90;;;;;;5121659;28;20487;-66
2022/07/06 03:30:05;;;;;;;3.90;3.03;;;21.20;99.90;;;;;;5124375;27;20438;-66
2022/07/06 03:32:43;;;;;;;3.20;2.90;;;21.20;99.90;;;;;;5124750;28;20454;-66
2022/07/06 03:35:14;;;;;;;2.80;2.53;;;21.10;99.90;;;;;;5123745;28;20967;-66
2022/07/06 03:37:46;;;;;;;3.63;2.40;;;21.10;99.90;;;;;;5123746;27;20442;-66
2022/07/06 03:40:17;;;;;;;3.17;2.87;;;21.00;99.90;;;;;;5123950;28;20454;-66
2022/07/06 03:42:48;;;;;;;3.03;2.83;;;21.00;99.90;;;;;;5124076;28;20454;-66
2022/07/06 03:45:18;;;;;;;4.17;2.97;;;21.00;99.90;;;;;;5124426;28;20474;-66
2022/07/06 03:47:49;;;;;;;4.37;2.83;;;21.00;99.90;;;;;;5124590;28;20501;-66
2022/07/06 03:50:20;;;;;;;3.83;3.43;;;20.90;99.90;;;;;;5122925;28;20424;-66
2022/07/06 03:52:52;;;;;;;4.53;2.93;;;20.80;99.90;;;;;;5123669;28;20504;-66
2022/07/06 03:55:23;;;;;;;3.63;3.17;;;20.80;99.90;;;;;;5094388;28;20452;-66
2022/07/06 03:57:54;;;;;;;3.90;3.10;;;20.60;99.90;;;;;;5123986;28;20460;-66
2022/07/06 04:00:25;;;;;;;3.70;3.00;;;20.60;99.90;;;;;;5124263;28;20438;-66
2022/07/06 04:02:56;;;;;;;4.03;3.47;;;20.60;99.90;;;;;;5123693;28;20420;-66
2022/07/06 04:05:27;;;;;;;3.50;3.20;;;20.60;99.90;;;;;;5121929;28;21294;-66
2022/07/06 04:07:59;;;;;;;3.73;3.43;;;20.60;99.90;;;;;;5123764;28;20949;-66
2022/07/06 04:10:30;;;;;;;3.30;3.00;;;20.70;99.90;;;;;;5123718;28;20453;-66
2022/07/06 04:13:01;;;;;;;3.33;3.03;;;20.70;99.90;;;;;;5123316;28;20462;-66
2022/07/06 04:15:31;;;;;;;3.70;3.40;;;20.70;99.90;;;;;;5114941;28;20447;-66
2022/07/06 04:18:02;;;;;;;3.20;2.90;;;20.70;99.90;;;;;;5122908;28;20456;-66
2022/07/06 04:20:33;;;;;;;2.80;2.57;;;20.60;99.90;;;;;;5122322;28;20453;-66
2022/07/06 04:23:06;;;;;;;3.40;3.10;;;20.70;99.90;;;;;;5123402;28;20473;-66
2022/07/06 04:25:37;;;;;;;2.87;2.67;;;20.70;99.90;;;;;;5123256;28;20468;-66
2022/07/06 04:28:08;;;;;;;3.07;2.80;;;20.60;99.90;;;;;;5114844;28;20522;-65
2022/07/06 04:30:38;;;;;;;2.50;2.13;;;20.50;99.90;;;;;;5123296;28;20445;-66
2022/07/06 04:33:09;;;;;;;2.23;2.03;;;20.50;99.90;;;;;;5122843;28;20468;-65
2022/07/06 04:35:40;;;;;;;3.33;2.50;;;20.50;99.90;;;;;;5121988;28;20442;-66
2022/07/06 04:38:12;;;;;;;2.23;2.00;;;20.40;99.90;;;;;;5122872;28;20446;-66
2022/07/06 04:40:46;;;;;;;2.37;2.17;;;20.30;99.90;;;;;;5123276;28;20453;-66
2022/07/06 04:43:16;;;;;;;2.40;2.20;;;20.30;99.90;;;;;;5123265;28;20861;-66
2022/07/06 04:45:47;;;;;;;3.53;2.73;;;20.30;99.90;;;;;;5122641;28;20485;-66
2022/07/06 04:48:18;;;;;;;3.07;2.33;;;20.30;99.90;;;;;;5098186;28;20471;-66
2022/07/06 04:50:49;;;;;;;2.50;2.30;;;20.30;99.90;;;;;;5122379;28;20945;-66
2022/07/06 04:53:22;;;;;;;2.20;2.10;;;20.20;99.90;;;;;;5122909;28;20504;-66
2022/07/06 04:55:52;;;;;;;2.60;2.40;;;20.20;99.90;;;;;;5119652;28;20424;-66
2022/07/06 04:58:23;;;;;;;2.23;2.10;;;20.20;99.90;;;;;;5098757;28;20438;-67
2022/07/06 05:00:55;;;;;;;2.57;2.30;;;20.20;99.90;;;;;;5123223;28;20466;-66
2022/07/06 05:03:26;;;;;;;2.40;2.20;;;20.20;99.90;;;;;;5122643;28;20453;-65
2022/07/06 05:05:57;;;;;;;3.07;2.67;;;20.20;99.90;;;;;;5118917;28;20489;-66
2022/07/06 05:08:29;;;;;;;2.70;2.50;;;20.20;99.90;;;;;;5099617;28;20464;-66
2022/07/06 05:11:00;;;;;;;2.90;2.70;;;20.20;99.90;;;;;;5122656;28;20446;-66
2022/07/06 05:13:31;;;;;;;2.50;2.30;;;20.20;99.90;;;;;;5123253;28;20449;-66
2022/07/06 05:16:02;;;;;;;4.53;2.33;;;20.30;99.90;;;;;;5122976;28;21016;-66
2022/07/06 05:18:33;;;;;;;3.50;2.73;;;20.30;99.90;;;;;;5122453;28;20456;-66
2022/07/06 05:21:04;;;;;;;3.00;2.63;;;20.20;99.90;;;;;;5121591;28;20449;-66
2022/07/06 05:23:37;;;;;;;2.77;2.50;;;20.20;99.90;;;;;;5122658;28;20877;-66
2022/07/06 05:26:07;;;;;;;2.70;2.50;;;20.20;99.90;;;;;;5122802;28;20504;-66
2022/07/06 05:28:38;;;;;;;2.70;2.50;;;20.20;99.90;;;;;;5122884;28;20748;-66
2022/07/06 05:31:09;;;;;;;2.90;2.70;;;20.20;99.90;;;;;;5122229;28;20436;-66
2022/07/06 05:33:40;;;;;;;2.80;2.60;;;20.20;99.90;;;;;;5122492;28;20470;-66
2022/07/06 05:36:11;;;;;;;2.90;2.10;;;20.10;99.90;;;;;;5121734;28;20495;-66
2022/07/06 05:38:43;;;;;;;2.87;2.63;;;20.00;99.90;;;;;;5122309;28;20794;-66
2022/07/06 05:41:14;;;;;;;2.23;2.10;;;20.00;99.90;;;;;;5121775;28;20441;-66
2022/07/06 05:43:45;;;;;;;2.83;2.63;;;20.00;99.90;;;;;;5122923;28;20438;-66
2022/07/06 05:46:16;;;;;;;3.50;2.80;;;19.90;99.90;;;;;;5122410;28;20493;-66
2022/07/06 05:51:34;;;;;;;3.80;3.37;;;19.90;99.90;;;;;;5091791;28;20435;-66
2022/07/06 05:54:07;;;;;;;2.90;2.63;;;19.90;99.90;;;;;;5122167;28;20512;-66
2022/07/06 05:56:37;;;;;;;2.97;2.60;;;19.70;99.90;;;;;;5122163;28;20462;-66
2022/07/06 05:59:08;;;;;;;2.70;2.50;;;19.60;99.90;;;;;;5120782;28;20449;-66
2022/07/06 06:01:39;;;;;;;3.20;2.90;;;19.60;99.90;;;;;;5122370;28;20431;-66
2022/07/06 06:04:10;;;;;;;2.60;2.40;;;19.60;99.90;;;;;;5122083;28;20448;-66
2022/07/06 06:06:41;;;;;;;2.70;2.50;;;19.60;99.90;;;;;;5108498;28;20567;-66
2022/07/06 06:09:14;;;;;;;2.87;2.53;;;19.60;99.90;;;;;;5121794;28;20476;-66
2022/07/06 06:11:44;;;;;;;2.93;2.73;;;19.60;99.90;;;;;;5121628;28;20425;-66
2022/07/06 06:14:15;;;;;;;3.57;2.97;;;19.70;99.90;;;;;;5122343;28;20477;-66
2022/07/06 06:16:46;;;;;;;3.83;3.23;;;19.60;99.90;;;;;;5122192;28;20456;-66
2022/07/06 06:19:18;;;;;;;2.67;2.43;;;19.60;99.90;;;;;;5121710;28;20465;-66
2022/07/06 06:21:49;;;;;;;3.07;2.77;;;19.60;99.90;;;;;;5121076;28;20571;-66
2022/07/06 06:24:23;;;;;;;3.13;2.83;;;19.60;99.90;;;;;;5121942;28;20464;-66
2022/07/06 06:26:54;;;;;;;3.53;2.30;;;19.60;99.90;;;;;;5112570;28;20485;-66
2022/07/06 06:29:25;;;;;;;3.30;2.73;;;19.60;99.90;;;;;;5118691;28;20445;-66
2022/07/06 06:31:56;;;;;;;3.67;3.27;;;19.60;99.90;;;;;;5124953;28;20481;-66
2022/07/06 06:34:27;;;;;;;3.50;2.67;;;19.60;99.90;;;;;;5124681;28;20416;-66
2022/07/06 06:36:57;;;;;;;3.33;2.73;;;19.60;99.90;;;;;;5124045;28;20424;-66
2022/07/06 06:39:30;;;;;;;4.50;3.23;;;19.60;99.90;;;;;;5120385;28;20416;-66
2022/07/06 06:42:01;;;;;;;3.77;3.37;;;19.50;99.90;;;;;;5124730;28;20430;-66
2022/07/06 06:44:31;;;;;;;3.73;3.33;;;19.50;99.90;;;;;;5125523;28;20532;-66
2022/07/06 06:47:02;;;;;;;3.10;2.80;;;19.60;99.90;;;;;;5125182;28;20481;-66
2022/07/06 06:49:33;;;;;;;4.13;3.30;;;19.50;99.90;;;;;;5125184;27;20456;-66
2022/07/06 06:52:04;;;;;;;3.00;2.70;;;19.50;99.90;;;;;;5123837;28;20471;-66
2022/07/06 06:54:57;;;;;;;4.37;3.47;;;19.40;99.90;;;;;;5125104;28;20468;-66
2022/07/06 06:57:28;;;;;;;3.20;2.90;;;19.40;99.90;;;;;;5124921;28;20445;-66
2022/07/06 06:59:59;;;;;;;4.03;3.63;;;19.40;99.90;;;;;;5124898;28;20486;-66
2022/07/06 07:02:30;;;;;;;3.47;3.17;;;19.30;99.90;;;;;;5121238;28;20504;-65
2022/07/06 07:05:02;;;;;;;3.90;3.47;;;19.30;99.90;;;;;;5124220;28;20418;-66
2022/07/06 07:07:32;;;;;;;3.43;3.13;;;19.30;99.90;;;;;;5124654;28;20900;-66
2022/07/06 07:10:06;;;;;;;3.70;3.40;;;19.30;99.90;;;;;;5123916;28;20501;-66
2022/07/06 07:12:37;;;;;;;3.07;2.83;;;19.30;99.90;;;;;;5124822;28;20436;-66
2022/07/06 07:15:08;;;;;;;3.60;3.03;;;19.40;99.90;;;;;;5124529;27;20421;-66
2022/07/06 07:17:39;;;;;;;3.90;3.50;;;19.40;99.90;;;;;;5124991;28;20421;-66
2022/07/06 07:20:11;;;;;;;3.07;2.87;;;19.40;99.90;;;;;;5123210;28;20520;-66
2022/07/06 07:22:42;;;;;;;4.13;3.83;;;19.40;99.90;;;;;;5124291;28;20464;-66
2022/07/06 07:25:14;;;;;;;3.47;3.03;;;19.40;99.90;;;;;;5124181;27;20425;-65
2022/07/06 07:27:45;;;;;;;3.17;2.90;;;19.40;99.90;;;;;;5110891;28;20479;-66
2022/07/06 07:30:16;;;;;;;4.30;3.90;;;19.40;99.90;;;;;;5124552;28;20759;-66
2022/07/06 07:32:46;;;;;;;3.50;3.13;;;19.40;99.90;;;;;;5124416;28;20560;-66
2022/07/06 07:35:17;;;;;;;3.53;3.20;;;19.30;99.90;;;;;;5122229;28;20424;-65
2022/07/06 07:37:48;;;;;;;3.60;3.30;;;19.30;99.90;;;;;;5124232;28;20461;-66
2022/07/06 07:40:21;;;;;;;4.00;3.50;;;19.30;99.90;;;;;;5123550;28;20423;-66
2022/07/06 07:42:52;;;;;;;4.00;3.10;;;19.20;99.90;;;;;;5123845;28;20444;-66
2022/07/06 07:45:23;;;;;;;4.20;3.53;;;19.20;99.90;;;;;;5123691;28;20468;-66
2022/07/06 07:47:54;;;;;;;6.00;3.87;;;19.20;99.90;;;;;;5123951;27;20489;-66
2022/07/06 07:50:26;;;;;;;3.60;3.30;;;19.20;99.90;;;;;;5122874;28;20478;-66
2022/07/06 07:52:57;;;;;;;4.57;3.60;;;19.10;99.90;;;;;;5123933;28;20481;-66
2022/07/06 07:55:29;;;;;;;5.20;4.53;;;19.10;99.90;;;;;;5123398;27;20860;-65
2022/07/06 07:58:15;;;;;;;3.80;3.27;;;19.10;99.90;;;;;;5111558;28;20419;-66
2022/07/06 08:00:46;;;;;;;4.73;3.53;;;19.10;99.90;;;;;;5118104;28;20432;-66
2022/07/06 08:03:17;;;;;;;4.73;3.40;;;19.00;99.90;;;;;;5104021;28;20454;-66
2022/07/06 08:05:48;;;;;;;5.70;4.30;;;19.00;99.90;;;;;;5102510;28;20824;-66
2022/07/06 08:08:19;;;;;;;3.70;3.07;;;19.00;99.90;;;;;;5110552;28;20825;-66
2022/07/06 08:10:52;;;;;;;4.33;3.73;;;18.90;99.90;;;;;;5123490;28;20801;-66
2022/07/06 08:13:42;;;;;;;3.73;3.03;;;18.90;99.90;;;;;;5123555;28;20910;-66
2022/07/06 08:16:13;;;;;;;4.77;3.70;;;18.90;99.90;;;;;;5103613;28;20424;-66
2022/07/06 08:18:44;;;;;;;4.40;4.00;;;18.90;99.90;;;;;;5103788;28;20504;-66
2022/07/06 08:21:15;;;;;;;3.67;3.37;;;18.90;99.90;;;;;;5122266;28;20435;-66
2022/07/06 08:23:56;;;;;;;5.33;3.77;;;18.90;99.90;;;;;;5123675;27;20454;-66
2022/07/06 08:26:29;;;;;;;4.23;3.40;;;18.90;99.90;;;;;;5119025;27;20458;-66
2022/07/06 08:29:00;;;;;;;3.53;3.23;;;18.90;99.90;;;;;;5123247;28;20515;-66
2022/07/06 08:31:33;;;;;;;4.40;4.00;;;18.80;99.90;;;;;;5122755;28;20454;-66
2022/07/06 08:34:25;;;;;;;4.53;3.67;;;18.90;99.90;;;;;;5123110;28;20422;-67
2022/07/06 08:37:16;;;;;;;5.23;4.73;;;18.90;99.90;;;;;;5122179;28;20420;-66
2022/07/06 08:39:47;;;;;;;4.07;3.70;;;18.90;99.90;;;;;;5123091;28;20450;-66
2022/07/06 08:42:19;;;;;;;3.80;3.50;;;18.90;99.90;;;;;;5123041;27;20424;-66
2022/07/06 08:44:52;;;;;;;4.10;3.80;;;18.80;99.90;;;;;;5123367;28;20476;-66
2022/07/06 08:47:24;;;;;;;3.27;2.97;;;18.80;99.90;;;;;;5120663;28;20947;-66
2022/07/06 08:49:55;;;;;;;4.03;2.93;;;18.80;99.90;;;;;;5118436;28;20424;-66
2022/07/06 08:52:27;;;;;;;5.70;4.00;;;18.80;99.90;;;;;;5121347;28;20488;-66
2022/07/06 08:54:58;;;;;;;4.03;3.40;;;18.80;99.90;;;;;;5120707;28;20841;-66
2022/07/06 08:57:30;;;;;;;4.67;3.83;;;18.80;99.90;;;;;;5122370;28;20472;-66
2022/07/06 09:00:01;;;;;;;3.50;3.20;;;18.80;99.90;;;;;;5123036;28;20432;-66
2022/07/06 09:02:32;;;;;;;3.20;2.90;;;18.70;99.90;;;;;;5122119;28;20485;-66
2022/07/06 09:05:05;;;;;;;4.00;3.40;;;18.70;99.90;;;;;;5122038;28;20945;-67
2022/07/06 09:07:36;;;;;;;3.63;2.97;;;18.70;99.90;;;;;;5122400;28;20592;-66
2022/07/06 09:10:27;;;;;;;6.33;2.80;;;18.70;99.90;;;;;;5123027;28;20447;-66
2022/07/06 09:13:07;;;;;;;5.03;3.37;;;18.70;99.90;;;;;;5122709;28;20421;-66
2022/07/06 09:15:40;;;;;;;3.20;3.00;;;18.70;99.90;;;;;;5122641;28;20436;-66
2022/07/06 09:18:12;;;;;;;3.77;3.30;;;18.70;99.90;;;;;;5122279;28;20450;-66
2022/07/06 09:20:43;;;;;;;4.73;4.07;;;18.70;99.90;;;;;;5121797;28;20421;-66
2022/07/06 09:23:18;;;;;;;3.90;2.97;;;18.80;99.90;;;;;;5122568;28;20416;-66
2022/07/06 09:25:51;;;;;;;6.00;3.90;;;18.80;99.90;;;;;;5117188;28;20419;-66
2022/07/06 09:28:23;;;;;;;4.80;4.07;;;18.80;99.90;;;;;;5113934;28;20507;-66
2022/07/06 09:30:58;;;;;;;5.97;4.30;;;18.80;99.90;;;;;;5122415;28;20424;-66
2022/07/06 09:33:36;;;;;;;5.20;3.90;;;18.80;99.90;;;;;;5092123;28;20568;-66
2022/07/06 09:36:07;;;;;;;3.70;3.30;;;18.80;99.90;;;;;;5109810;28;20929;-66
2022/07/06 09:38:38;;;;;;;3.97;3.43;;;18.80;99.90;;;;;;5116189;28;20453;-66
2022/07/06 09:41:09;;;;;;;3.87;3.33;;;18.80;99.90;;;;;;5121049;28;20793;-66
2022/07/06 09:43:41;;;;;;;3.97;3.60;;;18.90;99.90;;;;;;5122676;28;20409;-66
2022/07/06 09:46:12;;;;;;;4.57;3.87;;;18.90;99.90;;;;;;5122346;28;20442;-66
2022/07/06 09:48:43;;;;;;;4.90;4.03;;;18.90;99.90;;;;;;5121782;28;20511;-66
2022/07/06 09:51:17;;;;;;;4.00;3.70;;;18.80;99.90;;;;;;5121101;28;20513;-66
2022/07/06 09:53:59;;;;;;;5.20;3.80;;;18.80;99.90;;;;;;5122041;28;20520;-66
2022/07/06 09:56:39;;;;;;;4.00;3.70;;;18.80;99.90;;;;;;5122048;28;20423;-67
2022/07/06 09:59:16;;;;;;;3.93;3.60;;;18.90;99.90;;;;;;5122443;28;20439;-66
2022/07/06 10:01:47;;;;;;;3.80;3.50;;;18.80;99.90;;;;;;5121647;28;20472;-66
2022/07/06 10:04:20;;;;;;;4.00;3.60;;;18.90;99.90;;;;;;5125060;28;20447;-66
2022/07/06 10:06:51;;;;;;;4.77;4.30;;;18.80;99.90;;;;;;5124737;28;20462;-66
2022/07/06 10:09:25;;;;;;;5.47;4.90;;;18.90;99.90;;;;;;5125791;28;20491;-66
2022/07/06 10:11:59;;;;;;;4.57;4.17;;;18.80;99.90;;;;;;5125374;28;20497;-66
2022/07/06 10:14:33;;;;;;;5.33;4.17;;;18.80;99.90;;;;;;5126276;28;20923;-66
2022/07/06 10:17:05;;;;;;;5.53;4.33;;;18.80;99.90;;;;;;5124976;28;20449;-66
2022/07/06 10:19:37;;;;;;;5.10;3.77;;;18.80;99.90;;;;;;5125594;28;20417;-66
2022/07/06 10:22:08;;;;;;;4.37;3.97;;;18.80;99.90;;;;;;5124027;28;20454;-66
2022/07/06 10:24:43;;;;;;;5.30;4.23;;;18.80;99.90;;;;;;5120261;28;20455;-66
2022/07/06 10:27:16;;;;;;;5.23;4.57;;;18.80;99.90;;;;;;5112930;28;20523;-67
2022/07/06 10:29:48;;;;;;;4.47;4.07;;;18.80;99.90;;;;;;5122642;28;20510;-66
2022/07/06 10:32:22;;;;;;;4.70;4.30;;;18.90;99.90;;;;;;5125138;28;20545;-65
2022/07/06 10:34:53;;;;;;;5.10;4.17;;;18.90;99.90;;;;;;5125408;28;20444;-67
2022/07/06 10:37:26;;;;;;;4.40;4.00;;;18.90;99.90;;;;;;5124317;28;20450;-66
2022/07/06 10:42:49;;;;;;;4.40;4.00;;;18.90;99.90;;;;;;5118132;28;20476;-67
2022/07/06 10:45:53;;;;;;;5.20;4.70;;;19.00;99.90;;;;;;5125188;28;20524;-67
2022/07/06 10:48:24;;;;;;;5.00;4.47;;;19.00;99.90;;;;;;5124689;28;20481;-67
2022/07/06 10:50:58;;;;;;;5.53;4.40;;;19.00;99.90;;;;;;5124782;28;20446;-66
2022/07/06 10:53:29;;;;;;;7.03;4.17;;;18.90;99.90;;;;;;5124326;28;20478;-65
2022/07/06 10:56:00;;;;;;;4.20;3.70;;;18.90;99.90;;;;;;5123807;28;20464;-65
2022/07/06 10:58:39;;;;;;;4.77;4.37;;;18.90;99.90;;;;;;5124417;28;20464;-66
2022/07/06 11:01:12;;;;;;;4.47;4.07;;;19.00;99.90;;;;;;5124855;28;20455;-66
2022/07/06 11:03:45;;;;;;;6.37;4.73;;;19.00;99.90;;;;;;5124432;28;20421;-66
2022/07/06 11:06:19;;;;;;;4.57;3.70;;;18.90;99.90;;;;;;5098126;28;20422;-66
2022/07/06 11:08:56;;;;;;;5.63;4.07;;;18.90;99.90;;;;;;5125179;28;20605;-66
2022/07/06 11:11:27;;;;;;;5.80;4.50;;;18.80;99.90;;;;;;5124890;28;20424;-66
2022/07/06 11:14:03;;;;;;;5.77;4.83;;;18.80;99.90;;;;;;5124406;28;20420;-66
2022/07/06 11:16:37;;;;;;;4.67;3.83;;;18.80;99.90;;;;;;5123204;28;20481;-66
2022/07/06 11:19:10;;;;;;;4.27;3.80;;;18.80;99.90;;;;;;5100378;28;20453;-66
2022/07/06 11:21:46;;;;;;;2.70;2.50;;;18.80;99.90;;;;;;5124095;28;20449;-67
2022/07/06 11:24:18;;;;;;;3.30;3.00;;;18.90;99.90;;;;;;5124405;28;20442;-66
2022/07/06 11:26:50;;;;;;;3.30;3.00;;;18.80;99.90;;;;;;5124336;28;20453;-66
2022/07/06 11:29:22;;;;;;;4.70;3.40;;;18.80;99.90;;;;;;5123862;28;20481;-66
2022/07/06 11:31:56;;;;;;;2.97;2.67;;;18.80;99.90;;;;;;5110725;28;20432;-66
2022/07/06 11:34:28;;;;;;;4.17;3.50;;;18.80;99.90;;;;;;5124149;28;20949;-67
2022/07/06 11:37:01;;;;;;;4.10;3.50;;;18.90;99.90;;;;;;5123571;28;20450;-66
2022/07/06 11:39:32;;;;;;;3.60;3.30;;;18.90;99.90;;;;;;5124507;28;20424;-64
2022/07/06 11:42:05;;;;;;;4.20;3.60;;;18.80;99.90;;;;;;5123897;28;20426;-66
2022/07/06 11:44:37;;;;;;;3.23;2.93;;;18.80;99.90;;;;;;5124001;28;20533;-67
2022/07/06 11:47:10;;;;;;;3.40;3.10;;;18.80;99.90;;;;;;5090547;28;20463;-64
2022/07/06 11:49:42;;;;;;;3.77;3.40;;;18.70;99.90;;;;;;5123279;28;20485;-67
2022/07/06 11:52:16;;;;;;;2.80;2.47;;;18.70;99.90;;;;;;5122493;28;20477;-64
2022/07/06 11:54:47;;;;;;;3.63;3.30;;;18.70;99.90;;;;;;5114423;28;20450;-66
2022/07/06 11:57:18;;;;;;;3.47;3.17;;;18.80;99.90;;;;;;5123570;28;20450;-66
2022/07/06 11:59:52;;;;;;;3.20;2.70;;;18.80;99.90;;;;;;5123727;28;20446;-66
2022/07/06 12:02:25;;;;;;;3.63;3.33;;;18.80;99.90;;;;;;5123434;28;20424;-66
2022/07/06 12:04:55;;;;;;;3.20;2.63;;;18.80;99.90;;;;;;5119910;28;20435;-64
2022/07/06 12:07:26;;;;;;;4.93;3.00;;;18.70;99.90;;;;;;5112590;28;20420;-66
2022/07/06 12:09:58;;;;;;;3.73;2.90;;;18.70;99.90;;;;;;5123214;28;20456;-63
2022/07/06 12:12:29;;;;;;;3.27;2.97;;;18.70;99.90;;;;;;5123458;28;20489;-65
2022/07/06 12:15:00;;;;;;;3.27;2.80;;;18.60;99.90;;;;;;5123369;28;20427;-63
2022/07/06 12:17:33;;;;;;;5.00;2.97;;;18.60;99.90;;;;;;5119781;28;21223;-63
2022/07/06 12:20:04;;;;;;;3.60;3.10;;;18.40;99.90;;;;;;5122883;28;20493;-64
2022/07/06 12:22:35;;;;;;;2.80;2.40;;;18.40;99.90;;;;;;5123207;28;20446;-64
2022/07/06 12:25:06;;;;;;;3.03;2.73;;;18.40;99.90;;;;;;5116670;28;20525;-64
2022/07/06 12:27:37;;;;;;;3.30;2.87;;;18.40;99.90;;;;;;5123191;28;20499;-63
2022/07/06 12:30:12;;;;;;;3.17;2.70;;;18.40;99.90;;;;;;5122083;28;20934;-64
2022/07/06 12:33:14;;;;;;;2.80;2.60;;;18.40;99.90;;;;;;5090033;28;20464;-64
2022/07/06 12:35:45;;;;;;;3.30;2.30;;;18.20;99.90;;;;;;5122204;28;20442;-64
2022/07/06 12:38:24;;;;;;;2.47;2.27;;;18.20;99.90;;;;;;5122946;28;20548;-64
2022/07/06 12:40:58;;;;;;;4.20;3.03;;;18.20;99.90;;;;;;5122653;28;20412;-64
2022/07/06 12:43:40;;;;;;;3.53;2.10;;;18.20;99.90;;;;;;5117173;28;20463;-64
2022/07/06 12:46:35;;;;;;;2.23;2.10;;;18.40;99.90;;;;;;5114973;28;20450;-64
2022/07/06 12:49:30;;;;;;;2.57;2.37;;;18.40;99.90;;;;;;5122919;28;20445;-64
2022/07/06 12:52:11;;;;;;;3.07;2.33;;;18.30;99.90;;;;;;5121453;28;20485;-64
2022/07/06 12:54:56;;;;;;;2.93;2.53;;;18.40;99.90;;;;;;5123157;28;20471;-64
2022/07/06 12:57:51;;;;;;;3.07;2.80;;;18.40;99.90;;;;;;5094998;28;20442;-64
2022/07/06 13:00:49;;;;;;;4.83;2.77;;;18.30;99.90;;;;;;5122262;28;20467;-64
2022/07/06 13:03:29;;;;;;;3.60;3.30;;;18.30;99.90;;;;;;5114040;28;20450;-63
2022/07/06 13:06:02;;;;;;;3.10;2.80;;;18.30;99.90;;;;;;5122180;28;20529;-64
2022/07/06 13:08:33;;;;;;;3.53;2.80;;;18.40;99.90;;;;;;5122683;28;20995;-64
2022/07/06 13:11:04;;;;;;;4.73;2.67;;;18.30;99.90;;;;;;5121857;28;20460;-64
2022/07/06 13:13:44;;;;;;;3.20;2.90;;;18.30;99.90;;;;;;5123099;28;20445;-63
2022/07/06 13:16:15;;;;;;;6.77;3.17;;;18.30;99.90;;;;;;5101325;28;20787;-64
2022/07/06 13:18:46;;;;;;;3.53;2.73;;;18.30;99.90;;;;;;5122976;28;20448;-64
2022/07/06 13:21:18;;;;;;;3.87;3.00;;;18.30;99.90;;;;;;5121900;28;20428;-63